<?xml version="1.0" encoding="UTF-8" standalone="no" ?>
<gpx xmlns="http://www.topografix.com/GPX/1/1" xmlns:xsi="http://www.w3.org/2001/XMLSchema-instance" xsi:schemaLocation="http://www.topografix.com/GPX/1/1 http://www.topografix.com/GPX/1/1/gpx.xsd" version="1.1" creator="VisuGPX - https://www.visugpx.com">
  <metadata>
    <name>Les îles éoliennes 02</name>
    <desc><![CDATA[le retour des îles les volcans les dauphins
la balade à Palerme]]></desc>
  </metadata>
  <trk>
    <name><![CDATA[Tracé actuel: 20 AVR 2018 11:46]]></name>
    <trkseg>
      <trkpt lat="38.15549" lon="14.77085">
        <ele>-4.19</ele>
        <time>2018-04-20T09:46:24Z</time>
      </trkpt>
      <trkpt lat="38.15562" lon="14.77102">
        <ele>-10.92</ele>
        <time>2018-04-20T09:46:46Z</time>
      </trkpt>
      <trkpt lat="38.15576" lon="14.77096">
        <ele>1.1</ele>
        <time>2018-04-20T09:47:06Z</time>
      </trkpt>
      <trkpt lat="38.15579" lon="14.77097">
        <ele>8.31</ele>
        <time>2018-04-20T09:47:23Z</time>
      </trkpt>
      <trkpt lat="38.15579" lon="14.77097">
        <ele>9.75</ele>
        <time>2018-04-20T09:47:46Z</time>
      </trkpt>
      <trkpt lat="38.15573" lon="14.77097">
        <ele>9.27</ele>
        <time>2018-04-20T09:48:08Z</time>
      </trkpt>
      <trkpt lat="38.15559" lon="14.77097">
        <ele>8.31</ele>
        <time>2018-04-20T09:48:29Z</time>
      </trkpt>
      <trkpt lat="38.15549" lon="14.77079">
        <ele>8.79</ele>
        <time>2018-04-20T09:48:51Z</time>
      </trkpt>
      <trkpt lat="38.15547" lon="14.77071">
        <ele>8.79</ele>
        <time>2018-04-20T09:48:58Z</time>
      </trkpt>
      <trkpt lat="38.15547" lon="14.7704">
        <ele>9.75</ele>
        <time>2018-04-20T09:49:22Z</time>
      </trkpt>
      <trkpt lat="38.15561" lon="14.77018">
        <ele>9.27</ele>
        <time>2018-04-20T09:49:44Z</time>
      </trkpt>
      <trkpt lat="38.15584" lon="14.77022">
        <ele>10.23</ele>
        <time>2018-04-20T09:50:09Z</time>
      </trkpt>
      <trkpt lat="38.15598" lon="14.77047">
        <ele>11.19</ele>
        <time>2018-04-20T09:50:31Z</time>
      </trkpt>
      <trkpt lat="38.15608" lon="14.77077">
        <ele>10.71</ele>
        <time>2018-04-20T09:50:54Z</time>
      </trkpt>
      <trkpt lat="38.15618" lon="14.77116">
        <ele>12.15</ele>
        <time>2018-04-20T09:51:23Z</time>
      </trkpt>
      <trkpt lat="38.15624" lon="14.77164">
        <ele>9.75</ele>
        <time>2018-04-20T09:51:56Z</time>
      </trkpt>
      <trkpt lat="38.15629" lon="14.77221">
        <ele>10.23</ele>
        <time>2018-04-20T09:52:30Z</time>
      </trkpt>
      <trkpt lat="38.15636" lon="14.77262">
        <ele>10.71</ele>
        <time>2018-04-20T09:52:55Z</time>
      </trkpt>
      <trkpt lat="38.15646" lon="14.77303">
        <ele>11.67</ele>
        <time>2018-04-20T09:53:20Z</time>
      </trkpt>
      <trkpt lat="38.15655" lon="14.77351">
        <ele>11.19</ele>
        <time>2018-04-20T09:53:49Z</time>
      </trkpt>
      <trkpt lat="38.15663" lon="14.77404">
        <ele>10.71</ele>
        <time>2018-04-20T09:54:20Z</time>
      </trkpt>
      <trkpt lat="38.15665" lon="14.77478">
        <ele>9.27</ele>
        <time>2018-04-20T09:55:04Z</time>
      </trkpt>
      <trkpt lat="38.1566" lon="14.77525">
        <ele>9.27</ele>
        <time>2018-04-20T09:55:32Z</time>
      </trkpt>
      <trkpt lat="38.15648" lon="14.7758">
        <ele>7.83</ele>
        <time>2018-04-20T09:56:02Z</time>
      </trkpt>
      <trkpt lat="38.15643" lon="14.77642">
        <ele>8.79</ele>
        <time>2018-04-20T09:56:27Z</time>
      </trkpt>
      <trkpt lat="38.15646" lon="14.77712">
        <ele>9.75</ele>
        <time>2018-04-20T09:56:54Z</time>
      </trkpt>
      <trkpt lat="38.15662" lon="14.77779">
        <ele>10.23</ele>
        <time>2018-04-20T09:57:21Z</time>
      </trkpt>
      <trkpt lat="38.15698" lon="14.77822">
        <ele>10.23</ele>
        <time>2018-04-20T09:57:46Z</time>
      </trkpt>
      <trkpt lat="38.15743" lon="14.77861">
        <ele>10.23</ele>
        <time>2018-04-20T09:58:14Z</time>
      </trkpt>
      <trkpt lat="38.15781" lon="14.77896">
        <ele>9.75</ele>
        <time>2018-04-20T09:58:37Z</time>
      </trkpt>
      <trkpt lat="38.15807" lon="14.77964">
        <ele>10.23</ele>
        <time>2018-04-20T09:59:03Z</time>
      </trkpt>
      <trkpt lat="38.15839" lon="14.78048">
        <ele>9.75</ele>
        <time>2018-04-20T09:59:30Z</time>
      </trkpt>
      <trkpt lat="38.15876" lon="14.78113">
        <ele>9.27</ele>
        <time>2018-04-20T09:59:52Z</time>
      </trkpt>
      <trkpt lat="38.15921" lon="14.78182">
        <ele>10.71</ele>
        <time>2018-04-20T10:00:17Z</time>
      </trkpt>
      <trkpt lat="38.15956" lon="14.78265">
        <ele>12.15</ele>
        <time>2018-04-20T10:00:43Z</time>
      </trkpt>
      <trkpt lat="38.15994" lon="14.78353">
        <ele>10.23</ele>
        <time>2018-04-20T10:01:11Z</time>
      </trkpt>
      <trkpt lat="38.16021" lon="14.78436">
        <ele>9.75</ele>
        <time>2018-04-20T10:01:36Z</time>
      </trkpt>
      <trkpt lat="38.16043" lon="14.78509">
        <ele>9.75</ele>
        <time>2018-04-20T10:01:58Z</time>
      </trkpt>
      <trkpt lat="38.16074" lon="14.78598">
        <ele>9.27</ele>
        <time>2018-04-20T10:02:25Z</time>
      </trkpt>
      <trkpt lat="38.16105" lon="14.78687">
        <ele>10.23</ele>
        <time>2018-04-20T10:02:52Z</time>
      </trkpt>
      <trkpt lat="38.16138" lon="14.7877">
        <ele>9.27</ele>
        <time>2018-04-20T10:03:18Z</time>
      </trkpt>
      <trkpt lat="38.16163" lon="14.78853">
        <ele>8.31</ele>
        <time>2018-04-20T10:03:43Z</time>
      </trkpt>
      <trkpt lat="38.16194" lon="14.78954">
        <ele>9.27</ele>
        <time>2018-04-20T10:04:13Z</time>
      </trkpt>
      <trkpt lat="38.16224" lon="14.79048">
        <ele>12.15</ele>
        <time>2018-04-20T10:04:41Z</time>
      </trkpt>
      <trkpt lat="38.16253" lon="14.79134">
        <ele>11.67</ele>
        <time>2018-04-20T10:05:07Z</time>
      </trkpt>
      <trkpt lat="38.16284" lon="14.79231">
        <ele>10.71</ele>
        <time>2018-04-20T10:05:36Z</time>
      </trkpt>
      <trkpt lat="38.16312" lon="14.79312">
        <ele>11.19</ele>
        <time>2018-04-20T10:06:01Z</time>
      </trkpt>
      <trkpt lat="38.16341" lon="14.79403">
        <ele>10.71</ele>
        <time>2018-04-20T10:06:28Z</time>
      </trkpt>
      <trkpt lat="38.16373" lon="14.795">
        <ele>10.71</ele>
        <time>2018-04-20T10:06:57Z</time>
      </trkpt>
      <trkpt lat="38.16403" lon="14.79593">
        <ele>10.23</ele>
        <time>2018-04-20T10:07:25Z</time>
      </trkpt>
      <trkpt lat="38.16433" lon="14.79686">
        <ele>9.27</ele>
        <time>2018-04-20T10:07:53Z</time>
      </trkpt>
      <trkpt lat="38.1646" lon="14.79769">
        <ele>8.79</ele>
        <time>2018-04-20T10:08:18Z</time>
      </trkpt>
      <trkpt lat="38.16491" lon="14.79869">
        <ele>6.87</ele>
        <time>2018-04-20T10:08:48Z</time>
      </trkpt>
      <trkpt lat="38.16519" lon="14.79953">
        <ele>7.35</ele>
        <time>2018-04-20T10:09:13Z</time>
      </trkpt>
      <trkpt lat="38.16548" lon="14.80044">
        <ele>7.83</ele>
        <time>2018-04-20T10:09:40Z</time>
      </trkpt>
      <trkpt lat="38.16577" lon="14.80134">
        <ele>6.39</ele>
        <time>2018-04-20T10:10:07Z</time>
      </trkpt>
      <trkpt lat="38.16608" lon="14.80232">
        <ele>6.87</ele>
        <time>2018-04-20T10:10:36Z</time>
      </trkpt>
      <trkpt lat="38.16634" lon="14.8031">
        <ele>5.91</ele>
        <time>2018-04-20T10:10:59Z</time>
      </trkpt>
      <trkpt lat="38.16663" lon="14.80401">
        <ele>7.83</ele>
        <time>2018-04-20T10:11:26Z</time>
      </trkpt>
      <trkpt lat="38.16698" lon="14.80509">
        <ele>8.31</ele>
        <time>2018-04-20T10:11:58Z</time>
      </trkpt>
      <trkpt lat="38.1673" lon="14.80611">
        <ele>7.35</ele>
        <time>2018-04-20T10:12:28Z</time>
      </trkpt>
      <trkpt lat="38.16763" lon="14.80719">
        <ele>8.79</ele>
        <time>2018-04-20T10:13:00Z</time>
      </trkpt>
      <trkpt lat="38.16792" lon="14.80806">
        <ele>8.31</ele>
        <time>2018-04-20T10:13:26Z</time>
      </trkpt>
      <trkpt lat="38.16821" lon="14.809">
        <ele>7.83</ele>
        <time>2018-04-20T10:13:54Z</time>
      </trkpt>
      <trkpt lat="38.16849" lon="14.80984">
        <ele>6.87</ele>
        <time>2018-04-20T10:14:19Z</time>
      </trkpt>
      <trkpt lat="38.16879" lon="14.81076">
        <ele>6.39</ele>
        <time>2018-04-20T10:14:46Z</time>
      </trkpt>
      <trkpt lat="38.16905" lon="14.81157">
        <ele>7.35</ele>
        <time>2018-04-20T10:15:10Z</time>
      </trkpt>
      <trkpt lat="38.16932" lon="14.81247">
        <ele>8.79</ele>
        <time>2018-04-20T10:15:39Z</time>
      </trkpt>
      <trkpt lat="38.16959" lon="14.81337">
        <ele>7.35</ele>
        <time>2018-04-20T10:16:10Z</time>
      </trkpt>
      <trkpt lat="38.16984" lon="14.81417">
        <ele>7.35</ele>
        <time>2018-04-20T10:16:37Z</time>
      </trkpt>
      <trkpt lat="38.17007" lon="14.81492">
        <ele>7.35</ele>
        <time>2018-04-20T10:17:03Z</time>
      </trkpt>
      <trkpt lat="38.17028" lon="14.81559">
        <ele>7.83</ele>
        <time>2018-04-20T10:17:26Z</time>
      </trkpt>
      <trkpt lat="38.17052" lon="14.81638">
        <ele>7.83</ele>
        <time>2018-04-20T10:17:53Z</time>
      </trkpt>
      <trkpt lat="38.17076" lon="14.81713">
        <ele>8.31</ele>
        <time>2018-04-20T10:18:19Z</time>
      </trkpt>
      <trkpt lat="38.17099" lon="14.81789">
        <ele>8.31</ele>
        <time>2018-04-20T10:18:45Z</time>
      </trkpt>
      <trkpt lat="38.17104" lon="14.81875">
        <ele>8.31</ele>
        <time>2018-04-20T10:19:12Z</time>
      </trkpt>
      <trkpt lat="38.17107" lon="14.81978">
        <ele>8.79</ele>
        <time>2018-04-20T10:19:45Z</time>
      </trkpt>
      <trkpt lat="38.17109" lon="14.82049">
        <ele>9.75</ele>
        <time>2018-04-20T10:20:07Z</time>
      </trkpt>
      <trkpt lat="38.17114" lon="14.82136">
        <ele>9.27</ele>
        <time>2018-04-20T10:20:34Z</time>
      </trkpt>
      <trkpt lat="38.17117" lon="14.82206">
        <ele>10.23</ele>
        <time>2018-04-20T10:20:56Z</time>
      </trkpt>
      <trkpt lat="38.1712" lon="14.82297">
        <ele>9.27</ele>
        <time>2018-04-20T10:21:25Z</time>
      </trkpt>
      <trkpt lat="38.17125" lon="14.82377">
        <ele>8.79</ele>
        <time>2018-04-20T10:21:50Z</time>
      </trkpt>
      <trkpt lat="38.1713" lon="14.82461">
        <ele>9.75</ele>
        <time>2018-04-20T10:22:16Z</time>
      </trkpt>
      <trkpt lat="38.17134" lon="14.8254">
        <ele>8.31</ele>
        <time>2018-04-20T10:22:41Z</time>
      </trkpt>
      <trkpt lat="38.17137" lon="14.82626">
        <ele>8.79</ele>
        <time>2018-04-20T10:23:08Z</time>
      </trkpt>
      <trkpt lat="38.17141" lon="14.82704">
        <ele>8.79</ele>
        <time>2018-04-20T10:23:32Z</time>
      </trkpt>
      <trkpt lat="38.17145" lon="14.82804">
        <ele>9.27</ele>
        <time>2018-04-20T10:24:03Z</time>
      </trkpt>
      <trkpt lat="38.1715" lon="14.82894">
        <ele>8.31</ele>
        <time>2018-04-20T10:24:31Z</time>
      </trkpt>
      <trkpt lat="38.17155" lon="14.82972">
        <ele>8.31</ele>
        <time>2018-04-20T10:24:55Z</time>
      </trkpt>
      <trkpt lat="38.17161" lon="14.83064">
        <ele>8.31</ele>
        <time>2018-04-20T10:25:23Z</time>
      </trkpt>
      <trkpt lat="38.17168" lon="14.83154">
        <ele>7.35</ele>
        <time>2018-04-20T10:25:51Z</time>
      </trkpt>
      <trkpt lat="38.17176" lon="14.83239">
        <ele>7.35</ele>
        <time>2018-04-20T10:26:18Z</time>
      </trkpt>
      <trkpt lat="38.17185" lon="14.83317">
        <ele>8.31</ele>
        <time>2018-04-20T10:26:43Z</time>
      </trkpt>
      <trkpt lat="38.17197" lon="14.83401">
        <ele>9.27</ele>
        <time>2018-04-20T10:27:10Z</time>
      </trkpt>
      <trkpt lat="38.17207" lon="14.8347">
        <ele>9.27</ele>
        <time>2018-04-20T10:27:32Z</time>
      </trkpt>
      <trkpt lat="38.17219" lon="14.83538">
        <ele>9.75</ele>
        <time>2018-04-20T10:27:54Z</time>
      </trkpt>
      <trkpt lat="38.1723" lon="14.83608">
        <ele>9.27</ele>
        <time>2018-04-20T10:28:17Z</time>
      </trkpt>
      <trkpt lat="38.17245" lon="14.83691">
        <ele>10.23</ele>
        <time>2018-04-20T10:28:44Z</time>
      </trkpt>
      <trkpt lat="38.17257" lon="14.83765">
        <ele>10.23</ele>
        <time>2018-04-20T10:29:08Z</time>
      </trkpt>
      <trkpt lat="38.1727" lon="14.83862">
        <ele>8.31</ele>
        <time>2018-04-20T10:29:39Z</time>
      </trkpt>
      <trkpt lat="38.17278" lon="14.83945">
        <ele>8.79</ele>
        <time>2018-04-20T10:30:05Z</time>
      </trkpt>
      <trkpt lat="38.17284" lon="14.84017">
        <ele>7.35</ele>
        <time>2018-04-20T10:30:28Z</time>
      </trkpt>
      <trkpt lat="38.17291" lon="14.84078">
        <ele>7.83</ele>
        <time>2018-04-20T10:30:47Z</time>
      </trkpt>
      <trkpt lat="38.17298" lon="14.84159">
        <ele>7.83</ele>
        <time>2018-04-20T10:31:13Z</time>
      </trkpt>
      <trkpt lat="38.17306" lon="14.84235">
        <ele>8.31</ele>
        <time>2018-04-20T10:31:37Z</time>
      </trkpt>
      <trkpt lat="38.17314" lon="14.84322">
        <ele>6.39</ele>
        <time>2018-04-20T10:32:05Z</time>
      </trkpt>
      <trkpt lat="38.17321" lon="14.84397">
        <ele>6.39</ele>
        <time>2018-04-20T10:32:29Z</time>
      </trkpt>
      <trkpt lat="38.1733" lon="14.84475">
        <ele>5.91</ele>
        <time>2018-04-20T10:32:54Z</time>
      </trkpt>
      <trkpt lat="38.1734" lon="14.84585">
        <ele>6.39</ele>
        <time>2018-04-20T10:33:30Z</time>
      </trkpt>
      <trkpt lat="38.17347" lon="14.84674">
        <ele>8.31</ele>
        <time>2018-04-20T10:33:59Z</time>
      </trkpt>
      <trkpt lat="38.17354" lon="14.84758">
        <ele>8.31</ele>
        <time>2018-04-20T10:34:26Z</time>
      </trkpt>
      <trkpt lat="38.17362" lon="14.8483">
        <ele>9.27</ele>
        <time>2018-04-20T10:34:49Z</time>
      </trkpt>
      <trkpt lat="38.17367" lon="14.84899">
        <ele>8.31</ele>
        <time>2018-04-20T10:35:11Z</time>
      </trkpt>
      <trkpt lat="38.17374" lon="14.84984">
        <ele>7.83</ele>
        <time>2018-04-20T10:35:38Z</time>
      </trkpt>
      <trkpt lat="38.1738" lon="14.85059">
        <ele>6.87</ele>
        <time>2018-04-20T10:36:02Z</time>
      </trkpt>
      <trkpt lat="38.17385" lon="14.85125">
        <ele>6.39</ele>
        <time>2018-04-20T10:36:23Z</time>
      </trkpt>
      <trkpt lat="38.17393" lon="14.85192">
        <ele>4.94</ele>
        <time>2018-04-20T10:36:44Z</time>
      </trkpt>
      <trkpt lat="38.17398" lon="14.85269">
        <ele>6.87</ele>
        <time>2018-04-20T10:37:09Z</time>
      </trkpt>
      <trkpt lat="38.17406" lon="14.85353">
        <ele>7.83</ele>
        <time>2018-04-20T10:37:36Z</time>
      </trkpt>
      <trkpt lat="38.17411" lon="14.85424">
        <ele>7.35</ele>
        <time>2018-04-20T10:37:59Z</time>
      </trkpt>
      <trkpt lat="38.17416" lon="14.85505">
        <ele>7.83</ele>
        <time>2018-04-20T10:38:25Z</time>
      </trkpt>
      <trkpt lat="38.17424" lon="14.85583">
        <ele>7.35</ele>
        <time>2018-04-20T10:38:50Z</time>
      </trkpt>
      <trkpt lat="38.17434" lon="14.85657">
        <ele>6.87</ele>
        <time>2018-04-20T10:39:14Z</time>
      </trkpt>
      <trkpt lat="38.17443" lon="14.85724">
        <ele>6.39</ele>
        <time>2018-04-20T10:39:36Z</time>
      </trkpt>
      <trkpt lat="38.17452" lon="14.85804">
        <ele>5.91</ele>
        <time>2018-04-20T10:40:03Z</time>
      </trkpt>
      <trkpt lat="38.17463" lon="14.85878">
        <ele>6.87</ele>
        <time>2018-04-20T10:40:28Z</time>
      </trkpt>
      <trkpt lat="38.17473" lon="14.85952">
        <ele>6.87</ele>
        <time>2018-04-20T10:40:53Z</time>
      </trkpt>
      <trkpt lat="38.17483" lon="14.86023">
        <ele>8.79</ele>
        <time>2018-04-20T10:41:17Z</time>
      </trkpt>
      <trkpt lat="38.17493" lon="14.86097">
        <ele>7.35</ele>
        <time>2018-04-20T10:41:42Z</time>
      </trkpt>
      <trkpt lat="38.17504" lon="14.86177">
        <ele>5.91</ele>
        <time>2018-04-20T10:42:09Z</time>
      </trkpt>
      <trkpt lat="38.17505" lon="14.86245">
        <ele>5.42</ele>
        <time>2018-04-20T10:42:31Z</time>
      </trkpt>
      <trkpt lat="38.17505" lon="14.86324">
        <ele>4.46</ele>
        <time>2018-04-20T10:42:57Z</time>
      </trkpt>
      <trkpt lat="38.17504" lon="14.86388">
        <ele>5.42</ele>
        <time>2018-04-20T10:43:18Z</time>
      </trkpt>
      <trkpt lat="38.17505" lon="14.86478">
        <ele>4.94</ele>
        <time>2018-04-20T10:43:47Z</time>
      </trkpt>
      <trkpt lat="38.17505" lon="14.86551">
        <ele>5.42</ele>
        <time>2018-04-20T10:44:11Z</time>
      </trkpt>
      <trkpt lat="38.17505" lon="14.8664">
        <ele>5.42</ele>
        <time>2018-04-20T10:44:40Z</time>
      </trkpt>
      <trkpt lat="38.17506" lon="14.86713">
        <ele>4.94</ele>
        <time>2018-04-20T10:45:04Z</time>
      </trkpt>
      <trkpt lat="38.17506" lon="14.86802">
        <ele>6.39</ele>
        <time>2018-04-20T10:45:33Z</time>
      </trkpt>
      <trkpt lat="38.17506" lon="14.86878">
        <ele>5.91</ele>
        <time>2018-04-20T10:45:58Z</time>
      </trkpt>
      <trkpt lat="38.17505" lon="14.8697">
        <ele>5.91</ele>
        <time>2018-04-20T10:46:28Z</time>
      </trkpt>
      <trkpt lat="38.17506" lon="14.87054">
        <ele>6.87</ele>
        <time>2018-04-20T10:46:56Z</time>
      </trkpt>
      <trkpt lat="38.17506" lon="14.87117">
        <ele>6.39</ele>
        <time>2018-04-20T10:47:17Z</time>
      </trkpt>
      <trkpt lat="38.17506" lon="14.87213">
        <ele>6.39</ele>
        <time>2018-04-20T10:47:49Z</time>
      </trkpt>
      <trkpt lat="38.17506" lon="14.87292">
        <ele>5.91</ele>
        <time>2018-04-20T10:48:16Z</time>
      </trkpt>
      <trkpt lat="38.17505" lon="14.87368">
        <ele>5.42</ele>
        <time>2018-04-20T10:48:42Z</time>
      </trkpt>
      <trkpt lat="38.17503" lon="14.87448">
        <ele>5.42</ele>
        <time>2018-04-20T10:49:08Z</time>
      </trkpt>
      <trkpt lat="38.17502" lon="14.87537">
        <ele>4.94</ele>
        <time>2018-04-20T10:49:36Z</time>
      </trkpt>
      <trkpt lat="38.175" lon="14.87619">
        <ele>4.94</ele>
        <time>2018-04-20T10:50:02Z</time>
      </trkpt>
      <trkpt lat="38.17498" lon="14.8769">
        <ele>4.94</ele>
        <time>2018-04-20T10:50:25Z</time>
      </trkpt>
      <trkpt lat="38.17496" lon="14.87762">
        <ele>3.98</ele>
        <time>2018-04-20T10:50:48Z</time>
      </trkpt>
      <trkpt lat="38.17495" lon="14.87843">
        <ele>3.5</ele>
        <time>2018-04-20T10:51:14Z</time>
      </trkpt>
      <trkpt lat="38.17493" lon="14.8793">
        <ele>3.5</ele>
        <time>2018-04-20T10:51:42Z</time>
      </trkpt>
      <trkpt lat="38.17492" lon="14.88018">
        <ele>4.46</ele>
        <time>2018-04-20T10:52:11Z</time>
      </trkpt>
      <trkpt lat="38.1749" lon="14.88114">
        <ele>4.46</ele>
        <time>2018-04-20T10:52:42Z</time>
      </trkpt>
      <trkpt lat="38.17489" lon="14.88193">
        <ele>4.94</ele>
        <time>2018-04-20T10:53:08Z</time>
      </trkpt>
      <trkpt lat="38.17489" lon="14.88277">
        <ele>3.5</ele>
        <time>2018-04-20T10:53:35Z</time>
      </trkpt>
      <trkpt lat="38.17488" lon="14.88358">
        <ele>3.5</ele>
        <time>2018-04-20T10:54:01Z</time>
      </trkpt>
      <trkpt lat="38.17487" lon="14.88439">
        <ele>3.02</ele>
        <time>2018-04-20T10:54:27Z</time>
      </trkpt>
      <trkpt lat="38.17486" lon="14.88533">
        <ele>2.54</ele>
        <time>2018-04-20T10:54:57Z</time>
      </trkpt>
      <trkpt lat="38.17485" lon="14.88605">
        <ele>2.54</ele>
        <time>2018-04-20T10:55:20Z</time>
      </trkpt>
      <trkpt lat="38.17486" lon="14.88694">
        <ele>2.06</ele>
        <time>2018-04-20T10:55:48Z</time>
      </trkpt>
      <trkpt lat="38.17488" lon="14.88795">
        <ele>2.06</ele>
        <time>2018-04-20T10:56:20Z</time>
      </trkpt>
      <trkpt lat="38.17493" lon="14.88871">
        <ele>2.06</ele>
        <time>2018-04-20T10:56:44Z</time>
      </trkpt>
      <trkpt lat="38.17514" lon="14.88941">
        <ele>1.1</ele>
        <time>2018-04-20T10:57:08Z</time>
      </trkpt>
      <trkpt lat="38.17551" lon="14.88994">
        <ele>1.58</ele>
        <time>2018-04-20T10:57:30Z</time>
      </trkpt>
      <trkpt lat="38.17595" lon="14.89051">
        <ele>3.02</ele>
        <time>2018-04-20T10:57:55Z</time>
      </trkpt>
      <trkpt lat="38.17642" lon="14.89109">
        <ele>3.98</ele>
        <time>2018-04-20T10:58:21Z</time>
      </trkpt>
      <trkpt lat="38.17684" lon="14.89165">
        <ele>4.94</ele>
        <time>2018-04-20T10:58:45Z</time>
      </trkpt>
      <trkpt lat="38.17738" lon="14.89215">
        <ele>4.46</ele>
        <time>2018-04-20T10:59:11Z</time>
      </trkpt>
      <trkpt lat="38.17799" lon="14.89266">
        <ele>4.46</ele>
        <time>2018-04-20T10:59:40Z</time>
      </trkpt>
      <trkpt lat="38.17857" lon="14.89305">
        <ele>3.5</ele>
        <time>2018-04-20T11:00:06Z</time>
      </trkpt>
      <trkpt lat="38.17912" lon="14.89341">
        <ele>3.98</ele>
        <time>2018-04-20T11:00:30Z</time>
      </trkpt>
      <trkpt lat="38.17966" lon="14.8938">
        <ele>3.5</ele>
        <time>2018-04-20T11:00:54Z</time>
      </trkpt>
      <trkpt lat="38.18018" lon="14.89423">
        <ele>3.5</ele>
        <time>2018-04-20T11:01:18Z</time>
      </trkpt>
      <trkpt lat="38.18069" lon="14.89461">
        <ele>3.98</ele>
        <time>2018-04-20T11:01:41Z</time>
      </trkpt>
      <trkpt lat="38.1811" lon="14.89495">
        <ele>4.46</ele>
        <time>2018-04-20T11:02:00Z</time>
      </trkpt>
      <trkpt lat="38.18156" lon="14.89513">
        <ele>4.46</ele>
        <time>2018-04-20T11:02:19Z</time>
      </trkpt>
      <trkpt lat="38.18203" lon="14.89531">
        <ele>2.06</ele>
        <time>2018-04-20T11:02:38Z</time>
      </trkpt>
      <trkpt lat="38.18266" lon="14.8956">
        <ele>0.14</ele>
        <time>2018-04-20T11:03:04Z</time>
      </trkpt>
      <trkpt lat="38.18327" lon="14.89598">
        <ele>0.62</ele>
        <time>2018-04-20T11:03:30Z</time>
      </trkpt>
      <trkpt lat="38.18371" lon="14.89637">
        <ele>3.02</ele>
        <time>2018-04-20T11:03:51Z</time>
      </trkpt>
      <trkpt lat="38.18416" lon="14.89705">
        <ele>4.46</ele>
        <time>2018-04-20T11:04:18Z</time>
      </trkpt>
      <trkpt lat="38.18448" lon="14.89763">
        <ele>4.46</ele>
        <time>2018-04-20T11:04:40Z</time>
      </trkpt>
      <trkpt lat="38.18486" lon="14.89827">
        <ele>4.94</ele>
        <time>2018-04-20T11:05:04Z</time>
      </trkpt>
      <trkpt lat="38.18521" lon="14.89901">
        <ele>4.46</ele>
        <time>2018-04-20T11:05:30Z</time>
      </trkpt>
      <trkpt lat="38.18556" lon="14.89963">
        <ele>4.46</ele>
        <time>2018-04-20T11:05:53Z</time>
      </trkpt>
      <trkpt lat="38.18594" lon="14.90033">
        <ele>4.46</ele>
        <time>2018-04-20T11:06:19Z</time>
      </trkpt>
      <trkpt lat="38.18631" lon="14.90115">
        <ele>3.5</ele>
        <time>2018-04-20T11:06:47Z</time>
      </trkpt>
      <trkpt lat="38.1866" lon="14.90185">
        <ele>3.02</ele>
        <time>2018-04-20T11:07:11Z</time>
      </trkpt>
      <trkpt lat="38.18695" lon="14.90261">
        <ele>4.46</ele>
        <time>2018-04-20T11:07:38Z</time>
      </trkpt>
      <trkpt lat="38.18738" lon="14.90319">
        <ele>4.46</ele>
        <time>2018-04-20T11:08:03Z</time>
      </trkpt>
      <trkpt lat="38.18782" lon="14.90373">
        <ele>4.46</ele>
        <time>2018-04-20T11:08:27Z</time>
      </trkpt>
      <trkpt lat="38.18834" lon="14.90426">
        <ele>3.98</ele>
        <time>2018-04-20T11:08:53Z</time>
      </trkpt>
      <trkpt lat="38.18877" lon="14.90479">
        <ele>3.98</ele>
        <time>2018-04-20T11:09:17Z</time>
      </trkpt>
      <trkpt lat="38.18916" lon="14.90531">
        <ele>4.94</ele>
        <time>2018-04-20T11:09:39Z</time>
      </trkpt>
      <trkpt lat="38.18963" lon="14.90591">
        <ele>4.46</ele>
        <time>2018-04-20T11:10:05Z</time>
      </trkpt>
      <trkpt lat="38.19006" lon="14.90643">
        <ele>4.46</ele>
        <time>2018-04-20T11:10:28Z</time>
      </trkpt>
      <trkpt lat="38.19049" lon="14.90696">
        <ele>5.42</ele>
        <time>2018-04-20T11:10:52Z</time>
      </trkpt>
      <trkpt lat="38.19095" lon="14.90749">
        <ele>5.91</ele>
        <time>2018-04-20T11:11:16Z</time>
      </trkpt>
      <trkpt lat="38.19141" lon="14.90811">
        <ele>4.94</ele>
        <time>2018-04-20T11:11:42Z</time>
      </trkpt>
      <trkpt lat="38.1918" lon="14.90871">
        <ele>4.94</ele>
        <time>2018-04-20T11:12:06Z</time>
      </trkpt>
      <trkpt lat="38.19222" lon="14.90943">
        <ele>4.46</ele>
        <time>2018-04-20T11:12:33Z</time>
      </trkpt>
      <trkpt lat="38.19253" lon="14.91">
        <ele>5.42</ele>
        <time>2018-04-20T11:12:54Z</time>
      </trkpt>
      <trkpt lat="38.19296" lon="14.9108">
        <ele>4.46</ele>
        <time>2018-04-20T11:13:24Z</time>
      </trkpt>
      <trkpt lat="38.19333" lon="14.91153">
        <ele>3.98</ele>
        <time>2018-04-20T11:13:50Z</time>
      </trkpt>
      <trkpt lat="38.1936" lon="14.91227">
        <ele>4.46</ele>
        <time>2018-04-20T11:14:15Z</time>
      </trkpt>
      <trkpt lat="38.19359" lon="14.913">
        <ele>4.46</ele>
        <time>2018-04-20T11:14:38Z</time>
      </trkpt>
      <trkpt lat="38.19351" lon="14.9135">
        <ele>3.98</ele>
        <time>2018-04-20T11:15:01Z</time>
      </trkpt>
      <trkpt lat="38.19346" lon="14.91395">
        <ele>3.98</ele>
        <time>2018-04-20T11:15:28Z</time>
      </trkpt>
      <trkpt lat="38.19346" lon="14.91444">
        <ele>5.42</ele>
        <time>2018-04-20T11:15:57Z</time>
      </trkpt>
      <trkpt lat="38.19341" lon="14.91495">
        <ele>4.46</ele>
        <time>2018-04-20T11:16:23Z</time>
      </trkpt>
      <trkpt lat="38.19332" lon="14.9155">
        <ele>3.98</ele>
        <time>2018-04-20T11:16:49Z</time>
      </trkpt>
      <trkpt lat="38.19318" lon="14.91609">
        <ele>3.5</ele>
        <time>2018-04-20T11:17:17Z</time>
      </trkpt>
      <trkpt lat="38.19303" lon="14.91652">
        <ele>4.46</ele>
        <time>2018-04-20T11:17:39Z</time>
      </trkpt>
      <trkpt lat="38.19283" lon="14.91698">
        <ele>4.46</ele>
        <time>2018-04-20T11:18:03Z</time>
      </trkpt>
      <trkpt lat="38.19264" lon="14.91756">
        <ele>3.98</ele>
        <time>2018-04-20T11:18:33Z</time>
      </trkpt>
      <trkpt lat="38.19242" lon="14.91813">
        <ele>3.5</ele>
        <time>2018-04-20T11:19:03Z</time>
      </trkpt>
      <trkpt lat="38.19226" lon="14.91853">
        <ele>3.02</ele>
        <time>2018-04-20T11:19:24Z</time>
      </trkpt>
      <trkpt lat="38.19216" lon="14.91909">
        <ele>3.5</ele>
        <time>2018-04-20T11:19:51Z</time>
      </trkpt>
      <trkpt lat="38.19201" lon="14.91971">
        <ele>3.98</ele>
        <time>2018-04-20T11:20:21Z</time>
      </trkpt>
      <trkpt lat="38.19189" lon="14.9202">
        <ele>4.94</ele>
        <time>2018-04-20T11:20:45Z</time>
      </trkpt>
      <trkpt lat="38.19178" lon="14.92076">
        <ele>6.39</ele>
        <time>2018-04-20T11:21:12Z</time>
      </trkpt>
      <trkpt lat="38.19168" lon="14.92129">
        <ele>6.39</ele>
        <time>2018-04-20T11:21:37Z</time>
      </trkpt>
      <trkpt lat="38.19158" lon="14.92178">
        <ele>3.98</ele>
        <time>2018-04-20T11:22:00Z</time>
      </trkpt>
      <trkpt lat="38.1914" lon="14.92241">
        <ele>2.54</ele>
        <time>2018-04-20T11:22:30Z</time>
      </trkpt>
      <trkpt lat="38.19118" lon="14.92301">
        <ele>1.58</ele>
        <time>2018-04-20T11:23:00Z</time>
      </trkpt>
      <trkpt lat="38.19094" lon="14.92347">
        <ele>1.1</ele>
        <time>2018-04-20T11:23:26Z</time>
      </trkpt>
      <trkpt lat="38.1907" lon="14.92401">
        <ele>2.06</ele>
        <time>2018-04-20T11:23:54Z</time>
      </trkpt>
      <trkpt lat="38.19052" lon="14.9245">
        <ele>1.1</ele>
        <time>2018-04-20T11:24:19Z</time>
      </trkpt>
      <trkpt lat="38.1903" lon="14.92501">
        <ele>2.06</ele>
        <time>2018-04-20T11:24:46Z</time>
      </trkpt>
      <trkpt lat="38.18999" lon="14.92568">
        <ele>2.06</ele>
        <time>2018-04-20T11:25:21Z</time>
      </trkpt>
      <trkpt lat="38.18975" lon="14.92622">
        <ele>0.62</ele>
        <time>2018-04-20T11:25:49Z</time>
      </trkpt>
      <trkpt lat="38.18951" lon="14.92676">
        <ele>2.06</ele>
        <time>2018-04-20T11:26:17Z</time>
      </trkpt>
      <trkpt lat="38.18926" lon="14.92729">
        <ele>3.02</ele>
        <time>2018-04-20T11:26:44Z</time>
      </trkpt>
      <trkpt lat="38.18902" lon="14.92783">
        <ele>3.02</ele>
        <time>2018-04-20T11:27:12Z</time>
      </trkpt>
      <trkpt lat="38.18874" lon="14.92839">
        <ele>2.06</ele>
        <time>2018-04-20T11:27:44Z</time>
      </trkpt>
      <trkpt lat="38.1884" lon="14.92903">
        <ele>1.58</ele>
        <time>2018-04-20T11:28:13Z</time>
      </trkpt>
      <trkpt lat="38.188" lon="14.92979">
        <ele>2.06</ele>
        <time>2018-04-20T11:28:44Z</time>
      </trkpt>
      <trkpt lat="38.18768" lon="14.93046">
        <ele>3.02</ele>
        <time>2018-04-20T11:29:10Z</time>
      </trkpt>
      <trkpt lat="38.18734" lon="14.93126">
        <ele>4.46</ele>
        <time>2018-04-20T11:29:40Z</time>
      </trkpt>
      <trkpt lat="38.18704" lon="14.93204">
        <ele>4.94</ele>
        <time>2018-04-20T11:30:09Z</time>
      </trkpt>
      <trkpt lat="38.18677" lon="14.93286">
        <ele>4.94</ele>
        <time>2018-04-20T11:30:39Z</time>
      </trkpt>
      <trkpt lat="38.18642" lon="14.93352">
        <ele>4.46</ele>
        <time>2018-04-20T11:31:06Z</time>
      </trkpt>
      <trkpt lat="38.18604" lon="14.93432">
        <ele>5.91</ele>
        <time>2018-04-20T11:31:38Z</time>
      </trkpt>
      <trkpt lat="38.18568" lon="14.93515">
        <ele>5.42</ele>
        <time>2018-04-20T11:32:11Z</time>
      </trkpt>
      <trkpt lat="38.18531" lon="14.9359">
        <ele>4.46</ele>
        <time>2018-04-20T11:32:41Z</time>
      </trkpt>
      <trkpt lat="38.18492" lon="14.93666">
        <ele>4.46</ele>
        <time>2018-04-20T11:33:12Z</time>
      </trkpt>
      <trkpt lat="38.18457" lon="14.93733">
        <ele>3.5</ele>
        <time>2018-04-20T11:33:39Z</time>
      </trkpt>
      <trkpt lat="38.18422" lon="14.938">
        <ele>3.98</ele>
        <time>2018-04-20T11:34:07Z</time>
      </trkpt>
      <trkpt lat="38.18385" lon="14.93871">
        <ele>2.06</ele>
        <time>2018-04-20T11:34:36Z</time>
      </trkpt>
      <trkpt lat="38.18351" lon="14.93937">
        <ele>2.06</ele>
        <time>2018-04-20T11:35:03Z</time>
      </trkpt>
      <trkpt lat="38.18321" lon="14.93996">
        <ele>0.62</ele>
        <time>2018-04-20T11:35:27Z</time>
      </trkpt>
      <trkpt lat="38.18283" lon="14.94073">
        <ele>1.1</ele>
        <time>2018-04-20T11:35:57Z</time>
      </trkpt>
      <trkpt lat="38.18257" lon="14.94137">
        <ele>0.62</ele>
        <time>2018-04-20T11:36:21Z</time>
      </trkpt>
      <trkpt lat="38.18222" lon="14.94206">
        <ele>-0.34</ele>
        <time>2018-04-20T11:36:48Z</time>
      </trkpt>
      <trkpt lat="38.18188" lon="14.94286">
        <ele>2.06</ele>
        <time>2018-04-20T11:37:18Z</time>
      </trkpt>
      <trkpt lat="38.18172" lon="14.9435">
        <ele>4.46</ele>
        <time>2018-04-20T11:37:47Z</time>
      </trkpt>
      <trkpt lat="38.18161" lon="14.94397">
        <ele>4.46</ele>
        <time>2018-04-20T11:38:13Z</time>
      </trkpt>
      <trkpt lat="38.18142" lon="14.94455">
        <ele>4.46</ele>
        <time>2018-04-20T11:38:46Z</time>
      </trkpt>
      <trkpt lat="38.1813" lon="14.94509">
        <ele>3.5</ele>
        <time>2018-04-20T11:39:17Z</time>
      </trkpt>
      <trkpt lat="38.18123" lon="14.94554">
        <ele>3.98</ele>
        <time>2018-04-20T11:39:47Z</time>
      </trkpt>
      <trkpt lat="38.18117" lon="14.9459">
        <ele>3.5</ele>
        <time>2018-04-20T11:40:17Z</time>
      </trkpt>
      <trkpt lat="38.18106" lon="14.94625">
        <ele>2.54</ele>
        <time>2018-04-20T11:40:48Z</time>
      </trkpt>
      <trkpt lat="38.18098" lon="14.94661">
        <ele>4.94</ele>
        <time>2018-04-20T11:41:16Z</time>
      </trkpt>
      <trkpt lat="38.1809" lon="14.94702">
        <ele>4.94</ele>
        <time>2018-04-20T11:41:45Z</time>
      </trkpt>
      <trkpt lat="38.18082" lon="14.94738">
        <ele>5.91</ele>
        <time>2018-04-20T11:42:14Z</time>
      </trkpt>
      <trkpt lat="38.18074" lon="14.9477">
        <ele>5.91</ele>
        <time>2018-04-20T11:42:43Z</time>
      </trkpt>
      <trkpt lat="38.18068" lon="14.94799">
        <ele>6.39</ele>
        <time>2018-04-20T11:43:11Z</time>
      </trkpt>
      <trkpt lat="38.18059" lon="14.94834">
        <ele>6.39</ele>
        <time>2018-04-20T11:43:40Z</time>
      </trkpt>
      <trkpt lat="38.18049" lon="14.94873">
        <ele>4.94</ele>
        <time>2018-04-20T11:44:10Z</time>
      </trkpt>
      <trkpt lat="38.18041" lon="14.9491">
        <ele>4.94</ele>
        <time>2018-04-20T11:44:38Z</time>
      </trkpt>
      <trkpt lat="38.18031" lon="14.94957">
        <ele>6.39</ele>
        <time>2018-04-20T11:45:11Z</time>
      </trkpt>
      <trkpt lat="38.18019" lon="14.9501">
        <ele>4.94</ele>
        <time>2018-04-20T11:45:42Z</time>
      </trkpt>
      <trkpt lat="38.18006" lon="14.95071">
        <ele>5.42</ele>
        <time>2018-04-20T11:46:18Z</time>
      </trkpt>
      <trkpt lat="38.17994" lon="14.95127">
        <ele>4.94</ele>
        <time>2018-04-20T11:46:51Z</time>
      </trkpt>
      <trkpt lat="38.1798" lon="14.95185">
        <ele>5.42</ele>
        <time>2018-04-20T11:47:27Z</time>
      </trkpt>
      <trkpt lat="38.17969" lon="14.95229">
        <ele>4.46</ele>
        <time>2018-04-20T11:47:56Z</time>
      </trkpt>
      <trkpt lat="38.17959" lon="14.95268">
        <ele>3.98</ele>
        <time>2018-04-20T11:48:24Z</time>
      </trkpt>
      <trkpt lat="38.17951" lon="14.95299">
        <ele>2.54</ele>
        <time>2018-04-20T11:48:49Z</time>
      </trkpt>
      <trkpt lat="38.17941" lon="14.95335">
        <ele>3.5</ele>
        <time>2018-04-20T11:49:19Z</time>
      </trkpt>
      <trkpt lat="38.1793" lon="14.95376">
        <ele>3.5</ele>
        <time>2018-04-20T11:49:55Z</time>
      </trkpt>
      <trkpt lat="38.17923" lon="14.95402">
        <ele>3.02</ele>
        <time>2018-04-20T11:50:21Z</time>
      </trkpt>
      <trkpt lat="38.17911" lon="14.95443">
        <ele>3.02</ele>
        <time>2018-04-20T11:50:53Z</time>
      </trkpt>
      <trkpt lat="38.179" lon="14.95492">
        <ele>4.46</ele>
        <time>2018-04-20T11:51:24Z</time>
      </trkpt>
      <trkpt lat="38.1789" lon="14.95541">
        <ele>6.39</ele>
        <time>2018-04-20T11:51:52Z</time>
      </trkpt>
      <trkpt lat="38.1788" lon="14.95593">
        <ele>5.42</ele>
        <time>2018-04-20T11:52:21Z</time>
      </trkpt>
      <trkpt lat="38.17869" lon="14.95643">
        <ele>6.87</ele>
        <time>2018-04-20T11:52:48Z</time>
      </trkpt>
      <trkpt lat="38.17858" lon="14.95693">
        <ele>6.87</ele>
        <time>2018-04-20T11:53:15Z</time>
      </trkpt>
      <trkpt lat="38.17847" lon="14.95749">
        <ele>6.87</ele>
        <time>2018-04-20T11:53:44Z</time>
      </trkpt>
      <trkpt lat="38.17837" lon="14.95799">
        <ele>6.87</ele>
        <time>2018-04-20T11:54:10Z</time>
      </trkpt>
      <trkpt lat="38.17824" lon="14.95857">
        <ele>7.35</ele>
        <time>2018-04-20T11:54:43Z</time>
      </trkpt>
      <trkpt lat="38.17814" lon="14.95912">
        <ele>9.27</ele>
        <time>2018-04-20T11:55:18Z</time>
      </trkpt>
      <trkpt lat="38.17804" lon="14.95957">
        <ele>8.31</ele>
        <time>2018-04-20T11:55:47Z</time>
      </trkpt>
      <trkpt lat="38.17794" lon="14.96003">
        <ele>7.83</ele>
        <time>2018-04-20T11:56:19Z</time>
      </trkpt>
      <trkpt lat="38.17786" lon="14.96043">
        <ele>9.27</ele>
        <time>2018-04-20T11:56:45Z</time>
      </trkpt>
      <trkpt lat="38.17778" lon="14.96083">
        <ele>8.79</ele>
        <time>2018-04-20T11:57:10Z</time>
      </trkpt>
      <trkpt lat="38.17769" lon="14.96128">
        <ele>10.23</ele>
        <time>2018-04-20T11:57:37Z</time>
      </trkpt>
      <trkpt lat="38.17757" lon="14.96183">
        <ele>11.19</ele>
        <time>2018-04-20T11:58:09Z</time>
      </trkpt>
      <trkpt lat="38.17745" lon="14.96239">
        <ele>11.67</ele>
        <time>2018-04-20T11:58:39Z</time>
      </trkpt>
      <trkpt lat="38.17733" lon="14.96301">
        <ele>10.23</ele>
        <time>2018-04-20T11:59:10Z</time>
      </trkpt>
      <trkpt lat="38.17721" lon="14.96359">
        <ele>8.79</ele>
        <time>2018-04-20T11:59:40Z</time>
      </trkpt>
      <trkpt lat="38.17708" lon="14.96417">
        <ele>7.83</ele>
        <time>2018-04-20T12:00:13Z</time>
      </trkpt>
      <trkpt lat="38.177" lon="14.96459">
        <ele>7.83</ele>
        <time>2018-04-20T12:00:37Z</time>
      </trkpt>
      <trkpt lat="38.1769" lon="14.9651">
        <ele>6.87</ele>
        <time>2018-04-20T12:01:07Z</time>
      </trkpt>
      <trkpt lat="38.17679" lon="14.96552">
        <ele>6.87</ele>
        <time>2018-04-20T12:01:32Z</time>
      </trkpt>
      <trkpt lat="38.17668" lon="14.96606">
        <ele>5.91</ele>
        <time>2018-04-20T12:02:02Z</time>
      </trkpt>
      <trkpt lat="38.17658" lon="14.96655">
        <ele>5.42</ele>
        <time>2018-04-20T12:02:27Z</time>
      </trkpt>
      <trkpt lat="38.17649" lon="14.96706">
        <ele>5.42</ele>
        <time>2018-04-20T12:02:53Z</time>
      </trkpt>
      <trkpt lat="38.17638" lon="14.96761">
        <ele>5.91</ele>
        <time>2018-04-20T12:03:20Z</time>
      </trkpt>
      <trkpt lat="38.17624" lon="14.96825">
        <ele>5.91</ele>
        <time>2018-04-20T12:03:51Z</time>
      </trkpt>
      <trkpt lat="38.17614" lon="14.96875">
        <ele>5.42</ele>
        <time>2018-04-20T12:04:16Z</time>
      </trkpt>
      <trkpt lat="38.17603" lon="14.96929">
        <ele>5.91</ele>
        <time>2018-04-20T12:04:43Z</time>
      </trkpt>
      <trkpt lat="38.17594" lon="14.96987">
        <ele>5.91</ele>
        <time>2018-04-20T12:05:12Z</time>
      </trkpt>
      <trkpt lat="38.17582" lon="14.97052">
        <ele>5.42</ele>
        <time>2018-04-20T12:05:44Z</time>
      </trkpt>
      <trkpt lat="38.17573" lon="14.97103">
        <ele>6.39</ele>
        <time>2018-04-20T12:06:10Z</time>
      </trkpt>
      <trkpt lat="38.17564" lon="14.97158">
        <ele>7.83</ele>
        <time>2018-04-20T12:06:38Z</time>
      </trkpt>
      <trkpt lat="38.17554" lon="14.97211">
        <ele>8.31</ele>
        <time>2018-04-20T12:07:06Z</time>
      </trkpt>
      <trkpt lat="38.17544" lon="14.97263">
        <ele>8.31</ele>
        <time>2018-04-20T12:07:33Z</time>
      </trkpt>
      <trkpt lat="38.17536" lon="14.97313">
        <ele>8.79</ele>
        <time>2018-04-20T12:07:59Z</time>
      </trkpt>
      <trkpt lat="38.17527" lon="14.97366">
        <ele>8.79</ele>
        <time>2018-04-20T12:08:26Z</time>
      </trkpt>
      <trkpt lat="38.17516" lon="14.97415">
        <ele>7.83</ele>
        <time>2018-04-20T12:08:52Z</time>
      </trkpt>
      <trkpt lat="38.17506" lon="14.97462">
        <ele>5.91</ele>
        <time>2018-04-20T12:09:17Z</time>
      </trkpt>
      <trkpt lat="38.17497" lon="14.97508">
        <ele>5.42</ele>
        <time>2018-04-20T12:09:42Z</time>
      </trkpt>
      <trkpt lat="38.17488" lon="14.97551">
        <ele>5.42</ele>
        <time>2018-04-20T12:10:05Z</time>
      </trkpt>
      <trkpt lat="38.17479" lon="14.976">
        <ele>5.91</ele>
        <time>2018-04-20T12:10:31Z</time>
      </trkpt>
      <trkpt lat="38.17472" lon="14.97652">
        <ele>4.46</ele>
        <time>2018-04-20T12:11:00Z</time>
      </trkpt>
      <trkpt lat="38.17465" lon="14.9769">
        <ele>5.42</ele>
        <time>2018-04-20T12:11:22Z</time>
      </trkpt>
      <trkpt lat="38.17455" lon="14.9775">
        <ele>5.91</ele>
        <time>2018-04-20T12:11:55Z</time>
      </trkpt>
      <trkpt lat="38.17446" lon="14.97804">
        <ele>5.42</ele>
        <time>2018-04-20T12:12:26Z</time>
      </trkpt>
      <trkpt lat="38.17439" lon="14.97849">
        <ele>5.91</ele>
        <time>2018-04-20T12:12:53Z</time>
      </trkpt>
      <trkpt lat="38.17429" lon="14.97905">
        <ele>6.39</ele>
        <time>2018-04-20T12:13:25Z</time>
      </trkpt>
      <trkpt lat="38.17423" lon="14.97945">
        <ele>4.46</ele>
        <time>2018-04-20T12:13:50Z</time>
      </trkpt>
      <trkpt lat="38.17414" lon="14.97993">
        <ele>2.54</ele>
        <time>2018-04-20T12:14:19Z</time>
      </trkpt>
      <trkpt lat="38.17406" lon="14.98038">
        <ele>3.02</ele>
        <time>2018-04-20T12:14:45Z</time>
      </trkpt>
      <trkpt lat="38.17397" lon="14.98086">
        <ele>2.54</ele>
        <time>2018-04-20T12:15:14Z</time>
      </trkpt>
      <trkpt lat="38.1739" lon="14.98126">
        <ele>3.02</ele>
        <time>2018-04-20T12:15:40Z</time>
      </trkpt>
      <trkpt lat="38.17383" lon="14.98164">
        <ele>2.54</ele>
        <time>2018-04-20T12:16:05Z</time>
      </trkpt>
      <trkpt lat="38.17374" lon="14.9821">
        <ele>1.58</ele>
        <time>2018-04-20T12:16:35Z</time>
      </trkpt>
      <trkpt lat="38.17364" lon="14.98262">
        <ele>2.06</ele>
        <time>2018-04-20T12:17:08Z</time>
      </trkpt>
      <trkpt lat="38.17354" lon="14.98307">
        <ele>3.02</ele>
        <time>2018-04-20T12:17:35Z</time>
      </trkpt>
      <trkpt lat="38.17344" lon="14.98358">
        <ele>3.5</ele>
        <time>2018-04-20T12:18:07Z</time>
      </trkpt>
      <trkpt lat="38.17333" lon="14.98405">
        <ele>3.5</ele>
        <time>2018-04-20T12:18:33Z</time>
      </trkpt>
      <trkpt lat="38.17322" lon="14.98465">
        <ele>3.5</ele>
        <time>2018-04-20T12:19:06Z</time>
      </trkpt>
      <trkpt lat="38.17312" lon="14.98506">
        <ele>3.5</ele>
        <time>2018-04-20T12:19:28Z</time>
      </trkpt>
      <trkpt lat="38.17303" lon="14.98555">
        <ele>5.42</ele>
        <time>2018-04-20T12:19:54Z</time>
      </trkpt>
      <trkpt lat="38.17293" lon="14.98611">
        <ele>6.87</ele>
        <time>2018-04-20T12:20:24Z</time>
      </trkpt>
      <trkpt lat="38.17282" lon="14.98659">
        <ele>5.91</ele>
        <time>2018-04-20T12:20:50Z</time>
      </trkpt>
      <trkpt lat="38.17272" lon="14.98706">
        <ele>6.87</ele>
        <time>2018-04-20T12:21:16Z</time>
      </trkpt>
      <trkpt lat="38.1726" lon="14.98766">
        <ele>6.87</ele>
        <time>2018-04-20T12:21:48Z</time>
      </trkpt>
      <trkpt lat="38.1725" lon="14.98818">
        <ele>7.35</ele>
        <time>2018-04-20T12:22:16Z</time>
      </trkpt>
      <trkpt lat="38.17238" lon="14.9887">
        <ele>6.39</ele>
        <time>2018-04-20T12:22:45Z</time>
      </trkpt>
      <trkpt lat="38.1723" lon="14.98918">
        <ele>7.83</ele>
        <time>2018-04-20T12:23:12Z</time>
      </trkpt>
      <trkpt lat="38.1722" lon="14.98964">
        <ele>7.35</ele>
        <time>2018-04-20T12:23:39Z</time>
      </trkpt>
      <trkpt lat="38.17211" lon="14.99019">
        <ele>9.27</ele>
        <time>2018-04-20T12:24:12Z</time>
      </trkpt>
      <trkpt lat="38.17202" lon="14.99062">
        <ele>9.27</ele>
        <time>2018-04-20T12:24:38Z</time>
      </trkpt>
      <trkpt lat="38.1719" lon="14.99117">
        <ele>8.79</ele>
        <time>2018-04-20T12:25:10Z</time>
      </trkpt>
      <trkpt lat="38.17183" lon="14.99155">
        <ele>6.87</ele>
        <time>2018-04-20T12:25:33Z</time>
      </trkpt>
      <trkpt lat="38.17175" lon="14.99206">
        <ele>8.31</ele>
        <time>2018-04-20T12:26:03Z</time>
      </trkpt>
      <trkpt lat="38.17164" lon="14.9926">
        <ele>7.83</ele>
        <time>2018-04-20T12:26:36Z</time>
      </trkpt>
      <trkpt lat="38.17155" lon="14.99307">
        <ele>7.83</ele>
        <time>2018-04-20T12:27:06Z</time>
      </trkpt>
      <trkpt lat="38.17145" lon="14.99359">
        <ele>8.79</ele>
        <time>2018-04-20T12:27:38Z</time>
      </trkpt>
      <trkpt lat="38.17135" lon="14.9941">
        <ele>8.31</ele>
        <time>2018-04-20T12:28:08Z</time>
      </trkpt>
      <trkpt lat="38.17126" lon="14.99454">
        <ele>8.31</ele>
        <time>2018-04-20T12:28:34Z</time>
      </trkpt>
      <trkpt lat="38.17117" lon="14.99501">
        <ele>8.31</ele>
        <time>2018-04-20T12:29:02Z</time>
      </trkpt>
      <trkpt lat="38.17107" lon="14.9955">
        <ele>8.79</ele>
        <time>2018-04-20T12:29:31Z</time>
      </trkpt>
      <trkpt lat="38.17099" lon="14.99592">
        <ele>8.31</ele>
        <time>2018-04-20T12:29:58Z</time>
      </trkpt>
      <trkpt lat="38.17089" lon="14.99637">
        <ele>9.27</ele>
        <time>2018-04-20T12:30:28Z</time>
      </trkpt>
      <trkpt lat="38.17079" lon="14.99685">
        <ele>9.27</ele>
        <time>2018-04-20T12:31:00Z</time>
      </trkpt>
      <trkpt lat="38.1707" lon="14.99729">
        <ele>9.27</ele>
        <time>2018-04-20T12:31:29Z</time>
      </trkpt>
      <trkpt lat="38.17061" lon="14.99772">
        <ele>7.83</ele>
        <time>2018-04-20T12:31:57Z</time>
      </trkpt>
      <trkpt lat="38.17051" lon="14.99816">
        <ele>7.83</ele>
        <time>2018-04-20T12:32:25Z</time>
      </trkpt>
      <trkpt lat="38.17041" lon="14.99862">
        <ele>7.83</ele>
        <time>2018-04-20T12:32:54Z</time>
      </trkpt>
      <trkpt lat="38.17032" lon="14.99908">
        <ele>7.83</ele>
        <time>2018-04-20T12:33:22Z</time>
      </trkpt>
      <trkpt lat="38.1702" lon="14.99959">
        <ele>7.35</ele>
        <time>2018-04-20T12:33:54Z</time>
      </trkpt>
      <trkpt lat="38.17009" lon="15.00006">
        <ele>4.94</ele>
        <time>2018-04-20T12:34:24Z</time>
      </trkpt>
      <trkpt lat="38.16996" lon="15.00054">
        <ele>5.42</ele>
        <time>2018-04-20T12:34:53Z</time>
      </trkpt>
      <trkpt lat="38.16986" lon="15.00102">
        <ele>6.87</ele>
        <time>2018-04-20T12:35:22Z</time>
      </trkpt>
      <trkpt lat="38.16976" lon="15.00145">
        <ele>6.87</ele>
        <time>2018-04-20T12:35:48Z</time>
      </trkpt>
      <trkpt lat="38.16965" lon="15.00193">
        <ele>7.35</ele>
        <time>2018-04-20T12:36:17Z</time>
      </trkpt>
      <trkpt lat="38.16957" lon="15.00233">
        <ele>6.87</ele>
        <time>2018-04-20T12:36:42Z</time>
      </trkpt>
      <trkpt lat="38.16947" lon="15.00279">
        <ele>6.87</ele>
        <time>2018-04-20T12:37:12Z</time>
      </trkpt>
      <trkpt lat="38.16935" lon="15.00325">
        <ele>6.39</ele>
        <time>2018-04-20T12:37:44Z</time>
      </trkpt>
      <trkpt lat="38.16927" lon="15.0036">
        <ele>4.46</ele>
        <time>2018-04-20T12:38:10Z</time>
      </trkpt>
      <trkpt lat="38.16917" lon="15.00397">
        <ele>4.46</ele>
        <time>2018-04-20T12:38:37Z</time>
      </trkpt>
      <trkpt lat="38.16908" lon="15.00433">
        <ele>5.91</ele>
        <time>2018-04-20T12:39:04Z</time>
      </trkpt>
      <trkpt lat="38.16897" lon="15.00471">
        <ele>6.87</ele>
        <time>2018-04-20T12:39:33Z</time>
      </trkpt>
      <trkpt lat="38.16886" lon="15.0051">
        <ele>7.83</ele>
        <time>2018-04-20T12:40:04Z</time>
      </trkpt>
      <trkpt lat="38.16879" lon="15.00539">
        <ele>7.83</ele>
        <time>2018-04-20T12:40:28Z</time>
      </trkpt>
      <trkpt lat="38.1687" lon="15.00574">
        <ele>8.79</ele>
        <time>2018-04-20T12:40:56Z</time>
      </trkpt>
      <trkpt lat="38.1686" lon="15.00614">
        <ele>9.27</ele>
        <time>2018-04-20T12:41:29Z</time>
      </trkpt>
      <trkpt lat="38.16852" lon="15.00644">
        <ele>10.23</ele>
        <time>2018-04-20T12:41:54Z</time>
      </trkpt>
      <trkpt lat="38.16843" lon="15.00676">
        <ele>10.23</ele>
        <time>2018-04-20T12:42:21Z</time>
      </trkpt>
      <trkpt lat="38.16833" lon="15.00712">
        <ele>11.67</ele>
        <time>2018-04-20T12:42:50Z</time>
      </trkpt>
      <trkpt lat="38.16825" lon="15.00744">
        <ele>10.23</ele>
        <time>2018-04-20T12:43:18Z</time>
      </trkpt>
      <trkpt lat="38.16818" lon="15.00771">
        <ele>7.83</ele>
        <time>2018-04-20T12:43:44Z</time>
      </trkpt>
      <trkpt lat="38.16807" lon="15.00803">
        <ele>7.83</ele>
        <time>2018-04-20T12:44:15Z</time>
      </trkpt>
      <trkpt lat="38.16799" lon="15.00827">
        <ele>6.87</ele>
        <time>2018-04-20T12:44:42Z</time>
      </trkpt>
      <trkpt lat="38.16792" lon="15.00851">
        <ele>6.39</ele>
        <time>2018-04-20T12:45:12Z</time>
      </trkpt>
      <trkpt lat="38.16785" lon="15.00871">
        <ele>6.87</ele>
        <time>2018-04-20T12:45:39Z</time>
      </trkpt>
      <trkpt lat="38.16777" lon="15.00893">
        <ele>6.87</ele>
        <time>2018-04-20T12:46:10Z</time>
      </trkpt>
      <trkpt lat="38.1677" lon="15.0091">
        <ele>5.42</ele>
        <time>2018-04-20T12:46:38Z</time>
      </trkpt>
      <trkpt lat="38.16765" lon="15.00926">
        <ele>5.42</ele>
        <time>2018-04-20T12:47:03Z</time>
      </trkpt>
      <trkpt lat="38.16758" lon="15.00943">
        <ele>6.39</ele>
        <time>2018-04-20T12:47:31Z</time>
      </trkpt>
      <trkpt lat="38.16751" lon="15.00961">
        <ele>5.91</ele>
        <time>2018-04-20T12:47:59Z</time>
      </trkpt>
      <trkpt lat="38.16745" lon="15.00978">
        <ele>6.39</ele>
        <time>2018-04-20T12:48:22Z</time>
      </trkpt>
      <trkpt lat="38.16737" lon="15.00997">
        <ele>5.91</ele>
        <time>2018-04-20T12:48:52Z</time>
      </trkpt>
      <trkpt lat="38.16728" lon="15.01013">
        <ele>6.87</ele>
        <time>2018-04-20T12:49:22Z</time>
      </trkpt>
      <trkpt lat="38.16726" lon="15.01018">
        <ele>6.87</ele>
        <time>2018-04-20T12:49:29Z</time>
      </trkpt>
      <trkpt lat="38.16315" lon="15.0259">
        <ele>6.87</ele>
        <time>2018-04-20T13:01:50Z</time>
      </trkpt>
      <trkpt lat="38.1631" lon="15.02606">
        <ele>2.06</ele>
        <time>2018-04-20T13:01:56Z</time>
      </trkpt>
      <trkpt lat="38.16307" lon="15.02621">
        <ele>2.54</ele>
        <time>2018-04-20T13:02:02Z</time>
      </trkpt>
      <trkpt lat="38.16305" lon="15.0263">
        <ele>2.06</ele>
        <time>2018-04-20T13:02:05Z</time>
      </trkpt>
      <trkpt lat="38.16302" lon="15.02641">
        <ele>3.02</ele>
        <time>2018-04-20T13:02:10Z</time>
      </trkpt>
      <trkpt lat="38.16295" lon="15.02671">
        <ele>3.02</ele>
        <time>2018-04-20T13:02:22Z</time>
      </trkpt>
      <trkpt lat="38.16283" lon="15.02725">
        <ele>2.54</ele>
        <time>2018-04-20T13:02:42Z</time>
      </trkpt>
      <trkpt lat="38.16266" lon="15.02808">
        <ele>3.02</ele>
        <time>2018-04-20T13:03:12Z</time>
      </trkpt>
      <trkpt lat="38.16245" lon="15.02897">
        <ele>3.98</ele>
        <time>2018-04-20T13:03:44Z</time>
      </trkpt>
      <trkpt lat="38.16228" lon="15.02981">
        <ele>3.98</ele>
        <time>2018-04-20T13:04:14Z</time>
      </trkpt>
      <trkpt lat="38.16211" lon="15.03065">
        <ele>2.54</ele>
        <time>2018-04-20T13:04:44Z</time>
      </trkpt>
      <trkpt lat="38.16195" lon="15.0315">
        <ele>2.54</ele>
        <time>2018-04-20T13:05:15Z</time>
      </trkpt>
      <trkpt lat="38.16184" lon="15.03215">
        <ele>2.54</ele>
        <time>2018-04-20T13:05:38Z</time>
      </trkpt>
      <trkpt lat="38.16173" lon="15.03285">
        <ele>2.06</ele>
        <time>2018-04-20T13:06:03Z</time>
      </trkpt>
      <trkpt lat="38.16162" lon="15.03364">
        <ele>1.58</ele>
        <time>2018-04-20T13:06:31Z</time>
      </trkpt>
      <trkpt lat="38.16149" lon="15.03442">
        <ele>1.58</ele>
        <time>2018-04-20T13:06:59Z</time>
      </trkpt>
      <trkpt lat="38.16137" lon="15.03524">
        <ele>2.06</ele>
        <time>2018-04-20T13:07:28Z</time>
      </trkpt>
      <trkpt lat="38.16127" lon="15.03599">
        <ele>1.1</ele>
        <time>2018-04-20T13:07:55Z</time>
      </trkpt>
      <trkpt lat="38.16116" lon="15.0367">
        <ele>0.62</ele>
        <time>2018-04-20T13:08:20Z</time>
      </trkpt>
      <trkpt lat="38.16104" lon="15.03752">
        <ele>0.62</ele>
        <time>2018-04-20T13:08:49Z</time>
      </trkpt>
      <trkpt lat="38.16091" lon="15.03833">
        <ele>1.58</ele>
        <time>2018-04-20T13:09:18Z</time>
      </trkpt>
      <trkpt lat="38.16079" lon="15.03912">
        <ele>1.1</ele>
        <time>2018-04-20T13:09:46Z</time>
      </trkpt>
      <trkpt lat="38.16068" lon="15.03995">
        <ele>1.58</ele>
        <time>2018-04-20T13:10:15Z</time>
      </trkpt>
      <trkpt lat="38.16057" lon="15.04071">
        <ele>1.58</ele>
        <time>2018-04-20T13:10:42Z</time>
      </trkpt>
      <trkpt lat="38.16043" lon="15.04156">
        <ele>0.62</ele>
        <time>2018-04-20T13:11:12Z</time>
      </trkpt>
      <trkpt lat="38.16027" lon="15.04235">
        <ele>0.62</ele>
        <time>2018-04-20T13:11:40Z</time>
      </trkpt>
      <trkpt lat="38.16009" lon="15.0432">
        <ele>-0.34</ele>
        <time>2018-04-20T13:12:11Z</time>
      </trkpt>
      <trkpt lat="38.15988" lon="15.04399">
        <ele>0.14</ele>
        <time>2018-04-20T13:12:39Z</time>
      </trkpt>
      <trkpt lat="38.15966" lon="15.04477">
        <ele>-0.34</ele>
        <time>2018-04-20T13:13:08Z</time>
      </trkpt>
      <trkpt lat="38.15946" lon="15.04544">
        <ele>1.58</ele>
        <time>2018-04-20T13:13:33Z</time>
      </trkpt>
      <trkpt lat="38.15925" lon="15.04612">
        <ele>2.06</ele>
        <time>2018-04-20T13:13:58Z</time>
      </trkpt>
      <trkpt lat="38.15901" lon="15.04691">
        <ele>2.06</ele>
        <time>2018-04-20T13:14:27Z</time>
      </trkpt>
      <trkpt lat="38.15877" lon="15.04767">
        <ele>2.54</ele>
        <time>2018-04-20T13:14:55Z</time>
      </trkpt>
      <trkpt lat="38.15854" lon="15.04846">
        <ele>2.06</ele>
        <time>2018-04-20T13:15:24Z</time>
      </trkpt>
      <trkpt lat="38.15824" lon="15.04943">
        <ele>1.58</ele>
        <time>2018-04-20T13:16:00Z</time>
      </trkpt>
      <trkpt lat="38.15803" lon="15.0501">
        <ele>1.58</ele>
        <time>2018-04-20T13:16:25Z</time>
      </trkpt>
      <trkpt lat="38.1578" lon="15.05086">
        <ele>2.06</ele>
        <time>2018-04-20T13:16:53Z</time>
      </trkpt>
      <trkpt lat="38.15759" lon="15.05153">
        <ele>2.54</ele>
        <time>2018-04-20T13:17:18Z</time>
      </trkpt>
      <trkpt lat="38.15734" lon="15.05234">
        <ele>2.06</ele>
        <time>2018-04-20T13:17:48Z</time>
      </trkpt>
      <trkpt lat="38.15714" lon="15.05305">
        <ele>2.06</ele>
        <time>2018-04-20T13:18:14Z</time>
      </trkpt>
      <trkpt lat="38.15693" lon="15.05375">
        <ele>0.62</ele>
        <time>2018-04-20T13:18:40Z</time>
      </trkpt>
      <trkpt lat="38.1567" lon="15.0545">
        <ele>2.06</ele>
        <time>2018-04-20T13:19:08Z</time>
      </trkpt>
      <trkpt lat="38.15644" lon="15.05534">
        <ele>1.58</ele>
        <time>2018-04-20T13:19:39Z</time>
      </trkpt>
      <trkpt lat="38.15617" lon="15.05618">
        <ele>1.58</ele>
        <time>2018-04-20T13:20:10Z</time>
      </trkpt>
      <trkpt lat="38.15585" lon="15.05708">
        <ele>2.54</ele>
        <time>2018-04-20T13:20:44Z</time>
      </trkpt>
      <trkpt lat="38.15562" lon="15.05775">
        <ele>2.06</ele>
        <time>2018-04-20T13:21:09Z</time>
      </trkpt>
      <trkpt lat="38.15537" lon="15.05842">
        <ele>1.1</ele>
        <time>2018-04-20T13:21:35Z</time>
      </trkpt>
      <trkpt lat="38.15504" lon="15.05929">
        <ele>0.62</ele>
        <time>2018-04-20T13:22:08Z</time>
      </trkpt>
      <trkpt lat="38.15478" lon="15.05994">
        <ele>0.62</ele>
        <time>2018-04-20T13:22:33Z</time>
      </trkpt>
      <trkpt lat="38.15448" lon="15.0607">
        <ele>-0.34</ele>
        <time>2018-04-20T13:23:02Z</time>
      </trkpt>
      <trkpt lat="38.15413" lon="15.06156">
        <ele>-1.3</ele>
        <time>2018-04-20T13:23:35Z</time>
      </trkpt>
      <trkpt lat="38.1538" lon="15.06238">
        <ele>-0.82</ele>
        <time>2018-04-20T13:24:07Z</time>
      </trkpt>
      <trkpt lat="38.15349" lon="15.06319">
        <ele>-0.82</ele>
        <time>2018-04-20T13:24:38Z</time>
      </trkpt>
      <trkpt lat="38.15317" lon="15.06397">
        <ele>-0.34</ele>
        <time>2018-04-20T13:25:08Z</time>
      </trkpt>
      <trkpt lat="38.15286" lon="15.06473">
        <ele>1.1</ele>
        <time>2018-04-20T13:25:37Z</time>
      </trkpt>
      <trkpt lat="38.15253" lon="15.06547">
        <ele>1.1</ele>
        <time>2018-04-20T13:26:06Z</time>
      </trkpt>
      <trkpt lat="38.15215" lon="15.06633">
        <ele>1.58</ele>
        <time>2018-04-20T13:26:39Z</time>
      </trkpt>
      <trkpt lat="38.15174" lon="15.06729">
        <ele>1.1</ele>
        <time>2018-04-20T13:27:11Z</time>
      </trkpt>
      <trkpt lat="38.15132" lon="15.06825">
        <ele>1.58</ele>
        <time>2018-04-20T13:27:43Z</time>
      </trkpt>
      <trkpt lat="38.15096" lon="15.06911">
        <ele>0.62</ele>
        <time>2018-04-20T13:28:11Z</time>
      </trkpt>
      <trkpt lat="38.15054" lon="15.07005">
        <ele>0.62</ele>
        <time>2018-04-20T13:28:42Z</time>
      </trkpt>
      <trkpt lat="38.1502" lon="15.07083">
        <ele>1.1</ele>
        <time>2018-04-20T13:29:07Z</time>
      </trkpt>
      <trkpt lat="38.14979" lon="15.07172">
        <ele>2.06</ele>
        <time>2018-04-20T13:29:36Z</time>
      </trkpt>
      <trkpt lat="38.14941" lon="15.07262">
        <ele>2.54</ele>
        <time>2018-04-20T13:30:04Z</time>
      </trkpt>
      <trkpt lat="38.14902" lon="15.0735">
        <ele>3.02</ele>
        <time>2018-04-20T13:30:32Z</time>
      </trkpt>
      <trkpt lat="38.14872" lon="15.07419">
        <ele>3.02</ele>
        <time>2018-04-20T13:30:54Z</time>
      </trkpt>
      <trkpt lat="38.14835" lon="15.07502">
        <ele>1.58</ele>
        <time>2018-04-20T13:31:20Z</time>
      </trkpt>
      <trkpt lat="38.14794" lon="15.07592">
        <ele>1.58</ele>
        <time>2018-04-20T13:31:49Z</time>
      </trkpt>
      <trkpt lat="38.14751" lon="15.07685">
        <ele>2.06</ele>
        <time>2018-04-20T13:32:19Z</time>
      </trkpt>
      <trkpt lat="38.14711" lon="15.07775">
        <ele>2.06</ele>
        <time>2018-04-20T13:32:48Z</time>
      </trkpt>
      <trkpt lat="38.14669" lon="15.07869">
        <ele>2.06</ele>
        <time>2018-04-20T13:33:18Z</time>
      </trkpt>
      <trkpt lat="38.14637" lon="15.07941">
        <ele>2.54</ele>
        <time>2018-04-20T13:33:41Z</time>
      </trkpt>
      <trkpt lat="38.14597" lon="15.08036">
        <ele>1.58</ele>
        <time>2018-04-20T13:34:11Z</time>
      </trkpt>
      <trkpt lat="38.14556" lon="15.08125">
        <ele>2.06</ele>
        <time>2018-04-20T13:34:40Z</time>
      </trkpt>
      <trkpt lat="38.14522" lon="15.0821">
        <ele>3.98</ele>
        <time>2018-04-20T13:35:07Z</time>
      </trkpt>
      <trkpt lat="38.14484" lon="15.08297">
        <ele>3.98</ele>
        <time>2018-04-20T13:35:35Z</time>
      </trkpt>
      <trkpt lat="38.14443" lon="15.08375">
        <ele>2.54</ele>
        <time>2018-04-20T13:36:01Z</time>
      </trkpt>
      <trkpt lat="38.14385" lon="15.08471">
        <ele>1.58</ele>
        <time>2018-04-20T13:36:34Z</time>
      </trkpt>
      <trkpt lat="38.14336" lon="15.08558">
        <ele>1.58</ele>
        <time>2018-04-20T13:37:03Z</time>
      </trkpt>
      <trkpt lat="38.14293" lon="15.08632">
        <ele>1.1</ele>
        <time>2018-04-20T13:37:28Z</time>
      </trkpt>
      <trkpt lat="38.14251" lon="15.08707">
        <ele>0.62</ele>
        <time>2018-04-20T13:37:53Z</time>
      </trkpt>
      <trkpt lat="38.14209" lon="15.08782">
        <ele>1.1</ele>
        <time>2018-04-20T13:38:18Z</time>
      </trkpt>
      <trkpt lat="38.1416" lon="15.08868">
        <ele>1.58</ele>
        <time>2018-04-20T13:38:47Z</time>
      </trkpt>
      <trkpt lat="38.14107" lon="15.08959">
        <ele>0.62</ele>
        <time>2018-04-20T13:39:18Z</time>
      </trkpt>
      <trkpt lat="38.14061" lon="15.09034">
        <ele>1.1</ele>
        <time>2018-04-20T13:39:44Z</time>
      </trkpt>
      <trkpt lat="38.14014" lon="15.09114">
        <ele>3.02</ele>
        <time>2018-04-20T13:40:11Z</time>
      </trkpt>
      <trkpt lat="38.13969" lon="15.09191">
        <ele>2.54</ele>
        <time>2018-04-20T13:40:37Z</time>
      </trkpt>
      <trkpt lat="38.13927" lon="15.09265">
        <ele>1.58</ele>
        <time>2018-04-20T13:41:02Z</time>
      </trkpt>
      <trkpt lat="38.13877" lon="15.09347">
        <ele>2.06</ele>
        <time>2018-04-20T13:41:30Z</time>
      </trkpt>
      <trkpt lat="38.13817" lon="15.09451">
        <ele>2.06</ele>
        <time>2018-04-20T13:42:05Z</time>
      </trkpt>
      <trkpt lat="38.13767" lon="15.09539">
        <ele>2.06</ele>
        <time>2018-04-20T13:42:35Z</time>
      </trkpt>
      <trkpt lat="38.1372" lon="15.09619">
        <ele>1.58</ele>
        <time>2018-04-20T13:43:02Z</time>
      </trkpt>
      <trkpt lat="38.13676" lon="15.09696">
        <ele>1.1</ele>
        <time>2018-04-20T13:43:28Z</time>
      </trkpt>
      <trkpt lat="38.13624" lon="15.09788">
        <ele>0.14</ele>
        <time>2018-04-20T13:43:59Z</time>
      </trkpt>
      <trkpt lat="38.13587" lon="15.09853">
        <ele>1.58</ele>
        <time>2018-04-20T13:44:21Z</time>
      </trkpt>
      <trkpt lat="38.13534" lon="15.09943">
        <ele>1.58</ele>
        <time>2018-04-20T13:44:52Z</time>
      </trkpt>
      <trkpt lat="38.13478" lon="15.10042">
        <ele>1.58</ele>
        <time>2018-04-20T13:45:25Z</time>
      </trkpt>
      <trkpt lat="38.13428" lon="15.10128">
        <ele>-0.34</ele>
        <time>2018-04-20T13:45:54Z</time>
      </trkpt>
      <trkpt lat="38.13384" lon="15.1021">
        <ele>1.1</ele>
        <time>2018-04-20T13:46:21Z</time>
      </trkpt>
      <trkpt lat="38.13331" lon="15.10304">
        <ele>1.58</ele>
        <time>2018-04-20T13:46:53Z</time>
      </trkpt>
      <trkpt lat="38.13284" lon="15.10387">
        <ele>1.1</ele>
        <time>2018-04-20T13:47:21Z</time>
      </trkpt>
      <trkpt lat="38.13233" lon="15.10477">
        <ele>1.1</ele>
        <time>2018-04-20T13:47:51Z</time>
      </trkpt>
      <trkpt lat="38.13185" lon="15.10562">
        <ele>1.1</ele>
        <time>2018-04-20T13:48:19Z</time>
      </trkpt>
      <trkpt lat="38.13141" lon="15.10646">
        <ele>1.1</ele>
        <time>2018-04-20T13:48:46Z</time>
      </trkpt>
      <trkpt lat="38.13104" lon="15.10717">
        <ele>1.1</ele>
        <time>2018-04-20T13:49:09Z</time>
      </trkpt>
      <trkpt lat="38.13078" lon="15.1077">
        <ele>2.06</ele>
        <time>2018-04-20T13:49:26Z</time>
      </trkpt>
      <trkpt lat="38.13048" lon="15.10838">
        <ele>3.5</ele>
        <time>2018-04-20T13:49:47Z</time>
      </trkpt>
      <trkpt lat="38.13019" lon="15.10902">
        <ele>3.02</ele>
        <time>2018-04-20T13:50:07Z</time>
      </trkpt>
      <trkpt lat="38.12986" lon="15.1098">
        <ele>1.58</ele>
        <time>2018-04-20T13:50:31Z</time>
      </trkpt>
      <trkpt lat="38.1295" lon="15.11037">
        <ele>2.06</ele>
        <time>2018-04-20T13:50:53Z</time>
      </trkpt>
      <trkpt lat="38.12904" lon="15.11091">
        <ele>3.02</ele>
        <time>2018-04-20T13:51:21Z</time>
      </trkpt>
      <trkpt lat="38.1286" lon="15.11133">
        <ele>2.06</ele>
        <time>2018-04-20T13:51:49Z</time>
      </trkpt>
      <trkpt lat="38.12819" lon="15.11148">
        <ele>1.58</ele>
        <time>2018-04-20T13:52:13Z</time>
      </trkpt>
      <trkpt lat="38.12791" lon="15.11134">
        <ele>2.06</ele>
        <time>2018-04-20T13:52:33Z</time>
      </trkpt>
      <trkpt lat="38.12766" lon="15.11109">
        <ele>2.06</ele>
        <time>2018-04-20T13:52:59Z</time>
      </trkpt>
      <trkpt lat="38.1274" lon="15.11084">
        <ele>1.58</ele>
        <time>2018-04-20T13:53:29Z</time>
      </trkpt>
      <trkpt lat="38.12711" lon="15.11081">
        <ele>1.58</ele>
        <time>2018-04-20T13:53:58Z</time>
      </trkpt>
      <trkpt lat="38.12698" lon="15.11092">
        <ele>1.58</ele>
        <time>2018-04-20T13:54:14Z</time>
      </trkpt>
      <trkpt lat="38.12687" lon="15.11103">
        <ele>2.06</ele>
        <time>2018-04-20T13:54:29Z</time>
      </trkpt>
      <trkpt lat="38.12681" lon="15.111">
        <ele>2.06</ele>
        <time>2018-04-20T13:54:35Z</time>
      </trkpt>
      <trkpt lat="38.12683" lon="15.11076">
        <ele>2.54</ele>
        <time>2018-04-20T13:54:58Z</time>
      </trkpt>
      <trkpt lat="38.12698" lon="15.11087">
        <ele>3.02</ele>
        <time>2018-04-20T13:55:20Z</time>
      </trkpt>
      <trkpt lat="38.12687" lon="15.11116">
        <ele>1.1</ele>
        <time>2018-04-20T13:55:48Z</time>
      </trkpt>
      <trkpt lat="38.12674" lon="15.11143">
        <ele>1.58</ele>
        <time>2018-04-20T13:56:22Z</time>
      </trkpt>
      <trkpt lat="38.12663" lon="15.11159">
        <ele>1.58</ele>
        <time>2018-04-20T13:56:55Z</time>
      </trkpt>
      <trkpt lat="38.12662" lon="15.1116">
        <ele>3.02</ele>
        <time>2018-04-20T13:57:18Z</time>
      </trkpt>
      <trkpt lat="38.12661" lon="15.11162">
        <ele>3.5</ele>
        <time>2018-04-20T13:57:45Z</time>
      </trkpt>
      <trkpt lat="38.12661" lon="15.11163">
        <ele>3.02</ele>
        <time>2018-04-20T13:58:12Z</time>
      </trkpt>
      <trkpt lat="38.12661" lon="15.11164">
        <ele>3.02</ele>
        <time>2018-04-20T13:58:43Z</time>
      </trkpt>
      <trkpt lat="38.1266" lon="15.11165">
        <ele>3.98</ele>
        <time>2018-04-20T13:59:11Z</time>
      </trkpt>
      <trkpt lat="38.1266" lon="15.11166">
        <ele>3.98</ele>
        <time>2018-04-20T13:59:40Z</time>
      </trkpt>
      <trkpt lat="38.1266" lon="15.11168">
        <ele>3.98</ele>
        <time>2018-04-20T14:00:09Z</time>
      </trkpt>
      <trkpt lat="38.12661" lon="15.11171">
        <ele>3.98</ele>
        <time>2018-04-20T14:00:49Z</time>
      </trkpt>
      <trkpt lat="38.12659" lon="15.11173">
        <ele>4.46</ele>
        <time>2018-04-20T14:01:16Z</time>
      </trkpt>
      <trkpt lat="38.12658" lon="15.11175">
        <ele>3.98</ele>
        <time>2018-04-20T14:01:40Z</time>
      </trkpt>
      <trkpt lat="38.12658" lon="15.11178">
        <ele>3.02</ele>
        <time>2018-04-20T14:02:05Z</time>
      </trkpt>
      <trkpt lat="38.12652" lon="15.11181">
        <ele>2.06</ele>
        <time>2018-04-20T14:02:46Z</time>
      </trkpt>
      <trkpt lat="38.12629" lon="15.11182">
        <ele>2.06</ele>
        <time>2018-04-20T14:03:25Z</time>
      </trkpt>
      <trkpt lat="38.12621" lon="15.11184">
        <ele>3.02</ele>
        <time>2018-04-20T14:03:53Z</time>
      </trkpt>
      <trkpt lat="38.12619" lon="15.11184">
        <ele>3.98</ele>
        <time>2018-04-20T14:04:18Z</time>
      </trkpt>
      <trkpt lat="38.12617" lon="15.11184">
        <ele>5.42</ele>
        <time>2018-04-20T14:04:45Z</time>
      </trkpt>
      <trkpt lat="38.12617" lon="15.11185">
        <ele>4.94</ele>
        <time>2018-04-20T14:05:14Z</time>
      </trkpt>
      <trkpt lat="38.12617" lon="15.11185">
        <ele>4.94</ele>
        <time>2018-04-20T14:05:42Z</time>
      </trkpt>
      <trkpt lat="38.12617" lon="15.11186">
        <ele>3.98</ele>
        <time>2018-04-20T14:06:20Z</time>
      </trkpt>
      <trkpt lat="38.12616" lon="15.11185">
        <ele>3.98</ele>
        <time>2018-04-20T14:06:56Z</time>
      </trkpt>
      <trkpt lat="38.12616" lon="15.11186">
        <ele>3.98</ele>
        <time>2018-04-20T14:07:35Z</time>
      </trkpt>
      <trkpt lat="38.12616" lon="15.11185">
        <ele>3.02</ele>
        <time>2018-04-20T14:08:03Z</time>
      </trkpt>
      <trkpt lat="38.12617" lon="15.11186">
        <ele>3.5</ele>
        <time>2018-04-20T14:08:30Z</time>
      </trkpt>
      <trkpt lat="38.12618" lon="15.11186">
        <ele>3.98</ele>
        <time>2018-04-20T14:08:52Z</time>
      </trkpt>
      <trkpt lat="38.12618" lon="15.11185">
        <ele>4.46</ele>
        <time>2018-04-20T14:09:18Z</time>
      </trkpt>
      <trkpt lat="38.12611" lon="15.11191">
        <ele>3.98</ele>
        <time>2018-04-20T14:09:37Z</time>
      </trkpt>
      <trkpt lat="38.12576" lon="15.11208">
        <ele>3.02</ele>
        <time>2018-04-20T14:10:06Z</time>
      </trkpt>
      <trkpt lat="38.12538" lon="15.11224">
        <ele>2.06</ele>
        <time>2018-04-20T14:10:39Z</time>
      </trkpt>
      <trkpt lat="38.12507" lon="15.11246">
        <ele>2.06</ele>
        <time>2018-04-20T14:11:10Z</time>
      </trkpt>
      <trkpt lat="38.12489" lon="15.11267">
        <ele>2.06</ele>
        <time>2018-04-20T14:11:33Z</time>
      </trkpt>
      <trkpt lat="38.12467" lon="15.11284">
        <ele>3.02</ele>
        <time>2018-04-20T14:11:58Z</time>
      </trkpt>
      <trkpt lat="38.1244" lon="15.11278">
        <ele>2.54</ele>
        <time>2018-04-20T14:12:23Z</time>
      </trkpt>
      <trkpt lat="38.12407" lon="15.11269">
        <ele>3.02</ele>
        <time>2018-04-20T14:12:55Z</time>
      </trkpt>
      <trkpt lat="38.12379" lon="15.1126">
        <ele>3.5</ele>
        <time>2018-04-20T14:13:22Z</time>
      </trkpt>
      <trkpt lat="38.12345" lon="15.11238">
        <ele>3.02</ele>
        <time>2018-04-20T14:13:58Z</time>
      </trkpt>
      <trkpt lat="38.12314" lon="15.11209">
        <ele>3.02</ele>
        <time>2018-04-20T14:14:33Z</time>
      </trkpt>
      <trkpt lat="38.12288" lon="15.11184">
        <ele>3.5</ele>
        <time>2018-04-20T14:15:02Z</time>
      </trkpt>
      <trkpt lat="38.12267" lon="15.11163">
        <ele>3.98</ele>
        <time>2018-04-20T14:15:27Z</time>
      </trkpt>
      <trkpt lat="38.12245" lon="15.11135">
        <ele>3.98</ele>
        <time>2018-04-20T14:15:56Z</time>
      </trkpt>
      <trkpt lat="38.12228" lon="15.111">
        <ele>4.46</ele>
        <time>2018-04-20T14:16:26Z</time>
      </trkpt>
      <trkpt lat="38.12216" lon="15.11067">
        <ele>3.02</ele>
        <time>2018-04-20T14:16:52Z</time>
      </trkpt>
      <trkpt lat="38.12212" lon="15.11034">
        <ele>3.02</ele>
        <time>2018-04-20T14:17:17Z</time>
      </trkpt>
      <trkpt lat="38.1222" lon="15.11008">
        <ele>3.98</ele>
        <time>2018-04-20T14:17:45Z</time>
      </trkpt>
      <trkpt lat="38.12225" lon="15.10995">
        <ele>3.5</ele>
        <time>2018-04-20T14:18:13Z</time>
      </trkpt>
      <trkpt lat="38.12224" lon="15.1099">
        <ele>3.5</ele>
        <time>2018-04-20T14:18:45Z</time>
      </trkpt>
      <trkpt lat="38.12221" lon="15.10985">
        <ele>2.54</ele>
        <time>2018-04-20T14:19:13Z</time>
      </trkpt>
      <trkpt lat="38.12219" lon="15.10981">
        <ele>2.54</ele>
        <time>2018-04-20T14:19:40Z</time>
      </trkpt>
      <trkpt lat="38.12217" lon="15.10978">
        <ele>3.5</ele>
        <time>2018-04-20T14:20:07Z</time>
      </trkpt>
      <trkpt lat="38.12216" lon="15.10977">
        <ele>3.98</ele>
        <time>2018-04-20T14:20:32Z</time>
      </trkpt>
      <trkpt lat="38.12215" lon="15.10978">
        <ele>3.5</ele>
        <time>2018-04-20T14:20:54Z</time>
      </trkpt>
      <trkpt lat="38.12214" lon="15.10977">
        <ele>3.02</ele>
        <time>2018-04-20T14:21:25Z</time>
      </trkpt>
      <trkpt lat="38.12213" lon="15.10977">
        <ele>3.5</ele>
        <time>2018-04-20T14:21:53Z</time>
      </trkpt>
      <trkpt lat="38.12212" lon="15.10978">
        <ele>3.5</ele>
        <time>2018-04-20T14:22:24Z</time>
      </trkpt>
      <trkpt lat="38.1221" lon="15.10978">
        <ele>4.46</ele>
        <time>2018-04-20T14:22:58Z</time>
      </trkpt>
      <trkpt lat="38.1221" lon="15.10977">
        <ele>3.98</ele>
        <time>2018-04-20T14:23:27Z</time>
      </trkpt>
      <trkpt lat="38.12209" lon="15.10976">
        <ele>3.98</ele>
        <time>2018-04-20T14:23:36Z</time>
      </trkpt>
    </trkseg>
  </trk>
</gpx>